createdAt,value
2017-06-14T00:01:45.105Z,70.61
2017-06-14T00:04:12.630Z,70.12
2017-06-14T00:06:40.179Z,69.78
2017-06-14T00:09:07.695Z,70.89
2017-06-14T00:11:35.280Z,71.70
2017-06-14T00:14:02.800Z,71.50
2017-06-14T00:16:30.378Z,70.90
2017-06-14T00:18:57.955Z,71.76
2017-06-14T00:21:25.489Z,72.57
2017-06-14T00:23:53.127Z,72.23
2017-06-14T00:26:20.647Z,72.02
2017-06-14T00:28:48.215Z,72.42
2017-06-14T00:31:15.699Z,72.27
2017-06-14T00:33:43.279Z,71.29
2017-06-14T00:36:10.803Z,70.95
2017-06-14T00:38:38.340Z,70.31
2017-06-14T00:41:05.975Z,71.92
2017-06-14T00:43:33.620Z,72.53
2017-06-14T00:46:01.195Z,73.12
2017-06-14T00:48:28.805Z,73.81
2017-06-14T00:50:56.359Z,73.89
2017-06-14T00:53:23.890Z,74.31
2017-06-14T00:55:51.759Z,74.01
2017-06-14T00:58:19.359Z,74.11
2017-06-14T01:00:47.004Z,74.21
2017-06-14T01:03:14.544Z,74.21
2017-06-14T01:05:42.109Z,74.55
2017-06-14T01:08:09.682Z,74.63
2017-06-14T01:10:37.199Z,73.87
2017-06-14T01:13:04.726Z,73.73
2017-06-14T01:15:32.326Z,74.12
2017-06-14T01:17:59.879Z,73.99
2017-06-14T01:20:27.532Z,74.10
2017-06-14T01:22:55.055Z,74.36
2017-06-14T01:25:22.599Z,74.72
2017-06-14T01:27:50.205Z,73.94
2017-06-14T01:30:17.719Z,73.23
2017-06-14T01:32:45.262Z,72.13
2017-06-14T01:35:12.799Z,71.58
2017-06-14T01:37:40.450Z,71.34
2017-06-14T01:40:07.987Z,71.13
2017-06-14T01:42:35.566Z,72.03
2017-06-14T01:45:03.123Z,72.77
2017-06-14T01:47:30.632Z,72.94
2017-06-14T01:52:32.091Z,73.55
2017-06-14T01:54:59.653Z,73.38
2017-06-14T01:57:27.156Z,73.02
2017-06-14T01:59:54.776Z,71.73
2017-06-14T02:02:22.410Z,71.52
2017-06-14T02:04:49.954Z,71.93
2017-06-14T02:07:17.533Z,72.38
2017-06-14T02:09:45.098Z,72.72
2017-06-14T02:12:12.679Z,72.74
2017-06-14T02:14:40.291Z,72.15
2017-06-14T02:17:07.879Z,72.10
2017-06-14T02:19:35.394Z,72.49
2017-06-14T02:22:02.967Z,72.27
2017-06-14T02:24:30.488Z,73.75
2017-06-14T02:26:58.004Z,74.70
2017-06-14T02:29:25.578Z,75.40
2017-06-14T02:31:53.091Z,76.11
2017-06-14T02:34:20.651Z,74.78
2017-06-14T02:36:48.187Z,75.04
2017-06-14T02:39:15.840Z,75.06
2017-06-14T02:41:43.383Z,74.77
2017-06-14T02:44:10.996Z,75.38
2017-06-14T02:46:38.512Z,75.16
2017-06-14T02:49:06.051Z,75.43
2017-06-14T02:51:33.610Z,75.14
2017-06-14T02:54:01.115Z,75.47
2017-06-14T02:56:28.695Z,75.06
2017-06-14T02:58:56.202Z,75.12
2017-06-14T03:01:23.706Z,75.63
2017-06-14T03:03:51.268Z,75.34
2017-06-14T03:06:18.803Z,75.43
2017-06-14T03:08:46.559Z,76.25
2017-06-14T03:11:14.066Z,75.46
2017-06-14T03:13:41.711Z,74.73
2017-06-14T03:16:09.271Z,74.63
2017-06-14T03:18:36.817Z,73.80
2017-06-14T03:21:04.376Z,72.81
2017-06-14T03:23:31.920Z,73.07
2017-06-14T03:25:59.426Z,72.87
2017-06-14T03:28:26.983Z,73.01
2017-06-14T03:30:54.512Z,73.63
2017-06-14T03:33:22.187Z,74.94
2017-06-14T03:35:49.767Z,76.12
2017-06-14T03:38:17.399Z,74.91
2017-06-14T03:40:45.000Z,74.56
2017-06-14T03:43:12.531Z,74.54
2017-06-14T03:45:40.190Z,74.45
2017-06-14T03:48:07.747Z,73.94
2017-06-14T03:50:35.314Z,74.26
2017-06-14T03:53:02.831Z,74.16
2017-06-14T03:55:30.375Z,74.00
2017-06-14T03:57:57.887Z,73.62
2017-06-14T04:00:25.472Z,74.82
2017-06-14T04:02:53.064Z,73.99
2017-06-14T04:05:20.645Z,73.46
2017-06-14T04:07:48.359Z,73.47
2017-06-14T04:10:15.890Z,73.62
2017-06-14T04:12:43.638Z,73.63
2017-06-14T04:15:11.164Z,74.68
2017-06-14T04:17:38.703Z,74.86
2017-06-14T04:20:06.287Z,75.15
2017-06-14T04:22:33.840Z,75.35
2017-06-14T04:25:01.547Z,75.30
2017-06-14T04:27:29.063Z,75.30
2017-06-14T04:29:56.703Z,74.85
2017-06-14T04:32:24.254Z,74.68
2017-06-14T04:34:51.760Z,75.39
2017-06-14T04:37:19.333Z,75.86
2017-06-14T04:39:46.855Z,76.18
2017-06-14T04:42:14.431Z,76.14
2017-06-14T04:44:41.956Z,76.77
2017-06-14T04:47:09.478Z,76.21
2017-06-14T04:49:37.040Z,76.59
2017-06-14T04:52:04.546Z,75.96
2017-06-14T04:54:32.123Z,75.84
2017-06-14T04:56:59.647Z,75.31
2017-06-14T04:59:27.213Z,75.31
2017-06-14T05:01:54.853Z,75.19
2017-06-14T05:04:22.391Z,75.06
2017-06-14T05:06:49.954Z,75.45
2017-06-14T05:09:17.499Z,75.51
2017-06-14T05:11:45.071Z,76.01
2017-06-14T05:14:12.590Z,76.37
2017-06-14T05:16:40.181Z,75.80
2017-06-14T05:19:07.706Z,75.79
2017-06-14T05:21:35.223Z,75.40
2017-06-14T05:24:02.788Z,74.54
2017-06-14T05:26:30.323Z,74.48
2017-06-14T05:28:57.881Z,73.84
2017-06-14T05:31:25.427Z,73.30
2017-06-14T05:33:53.019Z,73.06
2017-06-14T05:36:20.547Z,72.45
2017-06-14T05:38:48.074Z,72.48
2017-06-14T05:41:15.647Z,73.08
2017-06-14T05:43:43.191Z,72.58
2017-06-14T05:46:10.748Z,72.57
2017-06-14T05:48:38.279Z,73.23
2017-06-14T05:51:05.847Z,72.92
2017-06-14T05:53:33.384Z,72.78
2017-06-14T05:56:00.910Z,72.49
2017-06-14T05:58:28.459Z,72.62
2017-06-14T06:00:55.993Z,72.06
2017-06-14T06:03:23.571Z,72.16
2017-06-14T06:05:51.099Z,71.97
2017-06-14T06:08:18.666Z,71.75
2017-06-14T06:10:46.192Z,71.32
2017-06-14T06:13:13.776Z,70.79
2017-06-14T06:15:41.296Z,70.47
2017-06-14T06:18:08.893Z,69.91
2017-06-14T06:20:36.443Z,69.51
2017-06-14T06:23:03.954Z,68.97
2017-06-14T06:25:31.536Z,69.17
2017-06-14T06:27:59.062Z,68.86
2017-06-14T06:30:27.179Z,68.89
2017-06-14T06:32:54.764Z,68.17
2017-06-14T06:35:22.299Z,68.11
2017-06-14T06:37:49.878Z,68.20
2017-06-14T06:40:19.030Z,67.68
2017-06-14T06:42:46.555Z,67.88
2017-06-14T06:45:14.111Z,67.83
2017-06-14T06:47:41.623Z,67.24
2017-06-14T06:50:09.227Z,67.41
2017-06-14T06:52:36.743Z,66.80
2017-06-14T06:55:04.342Z,66.63
2017-06-14T06:57:31.887Z,66.31
2017-06-14T06:59:59.398Z,66.39
2017-06-14T07:02:26.952Z,66.66
2017-06-14T07:04:54.466Z,66.91
2017-06-14T07:07:22.054Z,65.88
2017-06-14T07:09:49.551Z,65.54
2017-06-14T07:12:17.191Z,65.74
2017-06-14T07:14:44.699Z,64.85
2017-06-14T07:17:12.236Z,64.50
2017-06-14T07:19:39.795Z,64.05
2017-06-14T07:22:07.303Z,63.89
2017-06-14T07:24:34.886Z,63.97
2017-06-14T07:27:02.398Z,64.18
2017-06-14T07:29:29.961Z,62.79
2017-06-14T07:31:57.595Z,62.83
2017-06-14T07:34:25.144Z,63.18
2017-06-14T07:36:52.663Z,63.31
2017-06-14T07:39:20.180Z,63.13
2017-06-14T07:44:22.242Z,62.85
2017-06-14T07:46:49.759Z,62.85
2017-06-14T07:49:17.332Z,61.90
2017-06-14T07:51:44.861Z,61.71
2017-06-14T07:54:12.483Z,60.90
2017-06-14T07:56:39.991Z,60.54
2017-06-14T07:59:07.541Z,60.71
2017-06-14T08:01:35.111Z,60.56
2017-06-14T08:04:02.665Z,60.38
2017-06-14T08:06:30.263Z,59.68
2017-06-14T08:08:57.848Z,60.13
2017-06-14T08:11:25.414Z,58.74
2017-06-14T08:13:53.068Z,57.42
2017-06-14T08:16:20.593Z,57.81
2017-06-14T08:18:48.241Z,58.03
2017-06-14T08:21:15.827Z,55.69
2017-06-14T08:23:43.334Z,56.21
2017-06-14T08:26:10.880Z,55.04
2017-06-14T08:28:38.419Z,55.16
2017-06-14T08:31:05.978Z,56.08
2017-06-14T08:33:33.494Z,55.47
2017-06-14T08:36:01.066Z,55.39
2017-06-14T08:38:28.579Z,55.31
2017-06-14T08:40:56.090Z,55.10
2017-06-14T08:43:23.651Z,54.28
2017-06-14T08:45:51.160Z,54.75
2017-06-14T08:48:18.726Z,55.32
2017-06-14T08:50:46.274Z,55.34
2017-06-14T08:53:13.784Z,53.39
2017-06-14T08:55:41.355Z,53.21
2017-06-14T08:58:08.900Z,53.44
2017-06-14T09:00:36.459Z,53.15
2017-06-14T09:03:03.981Z,53.30
2017-06-14T09:05:31.587Z,54.21
2017-06-14T09:07:59.097Z,53.35
2017-06-14T09:10:26.656Z,54.02
2017-06-14T09:12:54.176Z,52.92
2017-06-14T09:15:21.734Z,51.67
2017-06-14T09:17:49.300Z,51.00
2017-06-14T09:20:16.854Z,51.31
2017-06-14T09:22:44.502Z,51.57
2017-06-14T09:25:12.028Z,51.66
2017-06-14T09:27:39.563Z,51.86
2017-06-14T09:30:07.114Z,51.56
2017-06-14T09:32:34.632Z,51.76
2017-06-14T09:35:02.322Z,52.21
2017-06-14T09:37:29.859Z,52.35
2017-06-14T09:39:57.395Z,51.31
2017-06-14T09:42:24.967Z,50.83
2017-06-14T09:44:52.495Z,50.91
2017-06-14T09:47:20.076Z,51.13
2017-06-14T09:49:47.646Z,50.33
2017-06-14T09:52:15.182Z,50.10
2017-06-14T09:54:42.793Z,49.71
2017-06-14T09:57:10.369Z,49.48
2017-06-14T09:59:38.800Z,49.41
2017-06-14T10:02:06.343Z,49.76
2017-06-14T10:04:33.922Z,49.52
2017-06-14T10:07:01.435Z,49.09
2017-06-14T10:09:28.954Z,49.42
2017-06-14T10:11:56.681Z,47.68
2017-06-14T10:14:24.198Z,46.89
2017-06-14T10:16:51.771Z,46.15
2017-06-14T10:19:19.292Z,46.05
2017-06-14T10:21:46.832Z,46.41
2017-06-14T10:24:14.387Z,47.43
2017-06-14T10:26:41.902Z,46.28
2017-06-14T10:29:09.454Z,45.35
2017-06-14T10:31:36.971Z,46.55
2017-06-14T10:34:04.563Z,45.20
2017-06-14T10:36:32.152Z,45.53
2017-06-14T10:38:59.689Z,45.69
2017-06-14T10:41:27.356Z,44.30
2017-06-14T10:43:54.871Z,44.03
2017-06-14T10:46:22.431Z,44.18
2017-06-14T10:48:49.940Z,43.87
2017-06-14T10:51:17.448Z,42.59
2017-06-14T10:53:45.015Z,42.77
2017-06-14T10:56:12.523Z,43.37
2017-06-14T10:58:40.086Z,43.10
2017-06-14T11:01:07.602Z,43.26
2017-06-14T11:03:35.107Z,42.15
2017-06-14T11:06:02.668Z,42.30
2017-06-14T11:08:30.207Z,41.35
2017-06-14T11:10:57.911Z,42.00
2017-06-14T11:13:25.466Z,42.10
2017-06-14T11:15:53.022Z,39.69
2017-06-14T11:18:20.571Z,39.38
2017-06-14T11:20:48.071Z,41.60
2017-06-14T11:23:15.636Z,40.92
2017-06-14T11:25:43.145Z,40.34
2017-06-14T11:28:10.658Z,41.53
2017-06-14T11:30:38.204Z,39.77
2017-06-14T11:33:05.799Z,40.03
2017-06-14T11:35:33.354Z,38.72
2017-06-14T11:38:00.860Z,38.89
2017-06-14T11:40:28.397Z,38.42
2017-06-14T11:42:55.967Z,37.39
2017-06-14T11:45:23.491Z,37.17
2017-06-14T11:47:51.048Z,38.26
2017-06-14T11:50:18.578Z,38.35
2017-06-14T11:52:46.150Z,38.29
2017-06-14T11:55:13.664Z,38.91
2017-06-14T11:57:41.191Z,39.09
2017-06-14T12:00:08.736Z,40.27
2017-06-14T12:02:36.251Z,39.27
2017-06-14T12:05:03.796Z,37.46
2017-06-14T12:07:31.357Z,36.44
2017-06-14T12:09:58.935Z,36.57
2017-06-14T12:12:26.450Z,36.21
2017-06-14T12:14:53.965Z,36.00
2017-06-14T12:17:21.534Z,37.38
2017-06-14T12:19:49.060Z,38.84
2017-06-14T12:22:16.607Z,37.10
2017-06-14T12:24:44.159Z,37.14
2017-06-14T12:27:11.718Z,36.86
2017-06-14T12:29:39.227Z,36.38
2017-06-14T12:32:06.779Z,37.03
2017-06-14T12:34:34.380Z,37.21
2017-06-14T12:37:02.275Z,36.52
2017-06-14T12:39:29.804Z,35.65
2017-06-14T12:41:57.479Z,35.63
2017-06-14T12:44:25.038Z,36.04
2017-06-14T12:46:52.707Z,35.35
2017-06-14T12:49:20.275Z,35.94
2017-06-14T12:51:47.811Z,35.56
2017-06-14T12:54:15.330Z,35.83
2017-06-14T12:56:42.916Z,36.22
2017-06-14T12:59:10.435Z,35.80
2017-06-14T13:01:38.087Z,35.00
2017-06-14T13:04:05.588Z,34.51
2017-06-14T13:06:33.124Z,35.44
2017-06-14T13:09:00.665Z,34.59
2017-06-14T13:11:28.206Z,35.04
2017-06-14T13:13:55.752Z,34.99
2017-06-14T13:16:23.291Z,34.72
2017-06-14T13:18:50.850Z,35.25
2017-06-14T13:21:18.525Z,34.91
2017-06-14T13:23:46.066Z,34.74
2017-06-14T13:26:13.691Z,34.32
2017-06-14T13:28:41.205Z,33.90
2017-06-14T13:31:08.797Z,33.87
2017-06-14T13:33:36.364Z,32.97
2017-06-14T13:36:03.920Z,34.62
2017-06-14T13:38:31.529Z,34.39
2017-06-14T13:40:59.056Z,33.49
2017-06-14T13:43:26.626Z,33.60
2017-06-14T13:45:54.207Z,34.58
2017-06-14T13:48:21.776Z,34.01
2017-06-14T13:50:49.311Z,35.29
2017-06-14T13:53:16.906Z,34.15
2017-06-14T13:55:44.564Z,34.07
2017-06-14T13:58:12.111Z,33.44
2017-06-14T14:00:39.691Z,32.97
2017-06-14T14:03:07.202Z,32.37
2017-06-14T14:05:34.773Z,32.12
2017-06-14T14:08:02.308Z,32.45
2017-06-14T14:10:29.916Z,31.50
2017-06-14T14:12:57.455Z,31.49
2017-06-14T14:15:25.069Z,31.45
2017-06-14T14:17:52.694Z,31.37
2017-06-14T14:20:20.271Z,31.98
2017-06-14T14:22:47.887Z,31.17
2017-06-14T14:25:15.421Z,31.17
2017-06-14T14:27:42.983Z,31.58
2017-06-14T14:30:10.521Z,31.03
2017-06-14T14:32:38.096Z,29.51
2017-06-14T14:35:05.622Z,29.96
2017-06-14T14:37:33.127Z,30.98
2017-06-14T14:40:00.688Z,31.22
2017-06-14T14:42:28.196Z,31.29
2017-06-14T14:44:55.996Z,31.15
2017-06-14T14:47:23.514Z,31.01
2017-06-14T14:49:51.032Z,30.55
2017-06-14T14:52:18.618Z,28.84
2017-06-14T14:54:46.173Z,28.81
2017-06-14T14:57:13.846Z,28.57
2017-06-14T14:59:41.378Z,29.65
2017-06-14T15:02:08.993Z,30.88
2017-06-14T15:04:36.486Z,29.10
2017-06-14T15:07:04.071Z,29.44
2017-06-14T15:09:31.648Z,29.19
2017-06-14T15:11:59.272Z,30.70
2017-06-14T15:14:26.854Z,30.98
2017-06-14T15:16:54.388Z,31.10
2017-06-14T15:19:21.966Z,31.39
2017-06-14T15:21:49.487Z,30.48
2017-06-14T15:24:17.011Z,30.28
2017-06-14T15:26:44.560Z,30.60
2017-06-14T15:29:12.103Z,30.24
2017-06-14T15:31:39.622Z,28.86
2017-06-14T15:34:07.170Z,30.38
2017-06-14T15:36:34.715Z,29.53
2017-06-14T15:39:02.248Z,29.49
2017-06-14T15:41:29.801Z,28.59
2017-06-14T15:43:57.333Z,28.91
2017-06-14T15:46:24.883Z,27.85
2017-06-14T15:48:52.391Z,27.30
2017-06-14T15:51:20.051Z,28.60
2017-06-14T15:53:47.722Z,28.61
2017-06-14T15:56:15.367Z,27.44
2017-06-14T15:58:42.926Z,26.72
2017-06-14T16:01:10.442Z,26.69
2017-06-14T16:03:38.129Z,27.03
2017-06-14T16:06:05.684Z,27.58
2017-06-14T16:08:33.276Z,27.41
2017-06-14T16:11:00.860Z,28.25
2017-06-14T16:13:28.508Z,28.17
2017-06-14T16:15:56.066Z,28.71
2017-06-14T16:18:23.628Z,28.36
2017-06-14T16:20:51.213Z,26.71
2017-06-14T16:23:18.771Z,28.71
2017-06-14T16:25:46.348Z,29.23
2017-06-14T16:28:13.974Z,29.43
2017-06-14T16:30:41.767Z,29.50
2017-06-14T16:33:09.299Z,28.33
2017-06-14T16:35:36.832Z,27.93
2017-06-14T16:38:04.403Z,27.69
2017-06-14T16:40:31.987Z,27.59
2017-06-14T16:42:59.639Z,27.46
2017-06-14T16:45:27.169Z,26.56
2017-06-14T16:47:54.718Z,26.38
2017-06-14T16:50:22.235Z,26.51
2017-06-14T16:52:49.842Z,26.66
2017-06-14T16:55:17.384Z,26.80
2017-06-14T16:57:44.929Z,28.44
2017-06-14T17:00:12.458Z,28.10
2017-06-14T17:02:40.063Z,28.46
2017-06-14T17:05:07.613Z,28.01
2017-06-14T17:07:35.203Z,27.83
2017-06-14T17:10:02.789Z,27.96
2017-06-14T17:12:30.307Z,27.90
2017-06-14T17:14:57.964Z,28.04
2017-06-14T17:17:25.492Z,26.78
2017-06-14T17:19:53.011Z,27.21
2017-06-14T17:22:20.564Z,28.52
2017-06-14T17:24:48.297Z,28.49
2017-06-14T17:27:15.823Z,27.81
2017-06-14T17:29:43.383Z,27.52
2017-06-14T17:32:10.985Z,27.28
2017-06-14T17:34:38.507Z,27.18
2017-06-14T17:37:06.059Z,27.03
2017-06-14T17:39:33.640Z,29.65
2017-06-14T17:42:01.144Z,29.53
2017-06-14T17:44:28.707Z,30.24
2017-06-14T17:46:56.283Z,30.61
2017-06-14T17:49:23.851Z,30.29
2017-06-14T17:51:51.391Z,30.59
2017-06-14T17:54:18.903Z,29.88
2017-06-14T17:56:46.475Z,30.38
2017-06-14T17:59:14.015Z,30.35
2017-06-14T18:01:41.572Z,29.58
2017-06-14T18:04:09.120Z,30.06
2017-06-14T18:06:36.826Z,29.40
2017-06-14T18:09:04.344Z,29.85
2017-06-14T18:11:31.923Z,29.41
2017-06-14T18:13:59.446Z,30.57
2017-06-14T18:16:26.957Z,31.88
2017-06-14T18:18:54.540Z,31.08
2017-06-14T18:21:22.052Z,31.67
2017-06-14T18:23:49.659Z,32.02
2017-06-14T18:26:17.226Z,32.01
2017-06-14T18:28:44.879Z,32.24
2017-06-14T18:31:12.455Z,33.49
2017-06-14T18:33:40.011Z,33.11
2017-06-14T18:36:07.661Z,33.23
2017-06-14T18:38:35.216Z,35.31
2017-06-14T18:41:02.796Z,36.18
2017-06-14T18:43:30.319Z,35.20
2017-06-14T18:45:57.920Z,35.91
2017-06-14T18:48:25.451Z,35.95
2017-06-14T18:50:52.968Z,36.77
2017-06-14T18:53:20.599Z,37.34
2017-06-14T18:55:48.142Z,37.22
2017-06-14T18:58:15.766Z,37.44
2017-06-14T19:00:43.463Z,37.76
2017-06-14T19:03:11.067Z,37.41
2017-06-14T19:05:38.653Z,36.76
2017-06-14T19:08:06.248Z,37.06
2017-06-14T19:10:33.848Z,37.68
2017-06-14T19:13:01.385Z,38.30
2017-06-14T19:15:29.025Z,38.76
2017-06-14T19:17:56.559Z,38.59
2017-06-14T19:20:24.087Z,38.71
2017-06-14T19:22:51.669Z,39.30
2017-06-14T19:25:19.265Z,39.28
2017-06-14T19:27:46.954Z,40.15
2017-06-14T19:30:14.471Z,40.28
2017-06-14T19:32:47.488Z,40.84
2017-06-14T19:35:15.046Z,40.24
2017-06-14T19:37:42.599Z,41.17
2017-06-14T19:40:10.163Z,41.55
2017-06-14T19:42:37.725Z,41.76
2017-06-14T19:45:05.317Z,42.54
2017-06-14T19:47:32.840Z,42.29
2017-06-14T19:50:00.391Z,42.42
2017-06-14T19:52:27.947Z,42.76
2017-06-14T19:54:55.512Z,43.13
2017-06-14T19:57:23.092Z,43.45
2017-06-14T19:59:50.641Z,43.58
2017-06-14T20:02:18.188Z,43.80
2017-06-14T20:04:45.735Z,44.05
2017-06-14T20:07:13.362Z,43.96
2017-06-14T20:09:40.943Z,44.13
2017-06-14T20:12:08.476Z,43.86
2017-06-14T20:14:36.129Z,44.08
2017-06-14T20:17:03.785Z,44.80
2017-06-14T20:19:31.317Z,44.36
2017-06-14T20:21:58.916Z,44.61
2017-06-14T20:24:26.446Z,45.02
2017-06-14T20:26:54.100Z,45.20
2017-06-14T20:29:21.634Z,45.41
2017-06-14T20:31:49.168Z,45.83
2017-06-14T20:34:16.759Z,46.15
2017-06-14T20:36:44.297Z,46.18
2017-06-14T20:39:11.859Z,46.58
2017-06-14T20:41:39.391Z,46.67
2017-06-14T20:44:06.987Z,46.70
2017-06-14T20:46:34.507Z,47.33
2017-06-14T20:49:02.041Z,47.66
2017-06-14T20:51:29.729Z,47.21
2017-06-14T20:53:57.259Z,47.64
2017-06-14T20:56:24.840Z,47.37
2017-06-14T20:58:52.376Z,47.73
2017-06-14T21:01:19.963Z,47.79
2017-06-14T21:03:47.507Z,47.89
2017-06-14T21:06:15.043Z,48.17
2017-06-14T21:08:42.614Z,47.58
2017-06-14T21:11:10.141Z,48.11
2017-06-14T21:13:37.700Z,48.31
2017-06-14T21:16:05.240Z,48.23
2017-06-14T21:18:32.843Z,48.52
2017-06-14T21:21:00.359Z,48.30
2017-06-14T21:23:27.871Z,48.48
2017-06-14T21:25:55.444Z,48.75
2017-06-14T21:28:23.068Z,48.92
2017-06-14T21:30:50.644Z,49.13
2017-06-14T21:33:18.166Z,48.79
2017-06-14T21:35:45.708Z,48.47
2017-06-14T21:38:13.255Z,48.24
2017-06-14T21:40:40.787Z,47.97
2017-06-14T21:43:08.362Z,47.68
2017-06-14T21:45:35.903Z,48.62
2017-06-14T21:48:03.462Z,49.01
2017-06-14T21:50:30.975Z,49.62
2017-06-14T21:52:58.558Z,49.72
2017-06-14T21:55:26.123Z,48.94
2017-06-14T21:57:53.695Z,49.37
2017-06-14T22:00:21.334Z,49.88
2017-06-14T22:02:48.905Z,49.50
2017-06-14T22:05:16.489Z,48.77
2017-06-14T22:07:44.004Z,48.13
2017-06-14T22:10:11.663Z,48.58
2017-06-14T22:12:39.210Z,48.78
2017-06-14T22:15:06.815Z,49.27
2017-06-14T22:17:34.377Z,48.88
2017-06-14T22:20:02.003Z,49.02
2017-06-14T22:22:29.629Z,49.28
2017-06-14T22:24:57.176Z,49.44
2017-06-14T22:27:24.743Z,49.92
2017-06-14T22:29:52.255Z,49.99
2017-06-14T22:32:19.880Z,49.50
2017-06-14T22:34:47.404Z,49.67
2017-06-14T22:37:15.026Z,50.45
2017-06-14T22:39:42.589Z,50.00
2017-06-14T22:42:10.119Z,49.39
2017-06-14T22:44:37.828Z,48.91
2017-06-14T22:47:05.375Z,48.42
2017-06-14T22:49:33.102Z,48.16
2017-06-14T22:52:00.690Z,48.01
2017-06-14T22:54:28.331Z,47.88
2017-06-14T22:56:55.857Z,48.14
2017-06-14T22:59:23.584Z,48.08
2017-06-14T23:01:51.145Z,48.36
2017-06-14T23:04:18.659Z,48.97
2017-06-14T23:06:46.235Z,48.86
2017-06-14T23:09:13.743Z,49.16
2017-06-14T23:11:41.272Z,49.25
2017-06-14T23:14:08.831Z,49.56
2017-06-14T23:16:36.336Z,49.73
2017-06-14T23:19:03.877Z,49.76
2017-06-14T23:21:31.443Z,49.65
2017-06-14T23:23:59.022Z,49.74
2017-06-14T23:26:26.543Z,49.73
2017-06-14T23:28:54.123Z,50.08
2017-06-14T23:31:21.627Z,50.21
2017-06-14T23:33:49.177Z,50.36
2017-06-14T23:36:16.736Z,50.59
2017-06-14T23:38:44.252Z,50.72
2017-06-14T23:41:11.836Z,50.81
2017-06-14T23:43:39.356Z,50.97
2017-06-14T23:46:06.923Z,50.84
2017-06-14T23:48:34.444Z,50.80
2017-06-14T23:51:01.952Z,50.75
2017-06-14T23:53:29.513Z,51.21
2017-06-14T23:55:57.022Z,51.09
2017-06-14T23:58:24.619Z,51.00
